Time;durP1;ratioP1;P1;durP2;ratioP2;P2;SDS_P1;SDS_P2;PMS_P1;PMS_P2;Temp;Humidity;BMP_temperature;BMP_pressure;BME280_temperature;BME280_humidity;BME280_pressure;Samples;Min_cycle;Max_cycle;Signal;HPM_P1;HPM_P2
2021/08/21 00:01:43;;;;;;;1.60;1.40;;;15.30;99.90;;;;;;5036597;28;20530;-70
2021/08/21 00:04:12;;;;;;;0.40;0.20;;;15.40;99.90;;;;;;5035632;28;20256;-70
2021/08/21 00:06:38;;;;;;;0.40;0.20;;;15.40;99.90;;;;;;5036364;28;20201;-70
2021/08/21 00:09:04;;;;;;;0.30;0.20;;;15.30;99.90;;;;;;5036470;28;20649;-70
2021/08/21 00:11:29;;;;;;;0.30;0.20;;;15.20;99.90;;;;;;5036575;28;20181;-67
2021/08/21 00:13:55;;;;;;;0.30;0.17;;;15.30;99.90;;;;;;5035428;28;20301;-67
2021/08/21 00:16:20;;;;;;;0.40;0.20;;;15.20;99.90;;;;;;5036413;28;20207;-67
2021/08/21 00:18:46;;;;;;;0.30;0.20;;;15.10;99.90;;;;;;5036077;28;20192;-67
2021/08/21 00:21:13;;;;;;;0.30;0.20;;;15.10;99.90;;;;;;5036290;28;20263;-66
2021/08/21 00:23:40;;;;;;;0.30;0.20;;;15.10;99.90;;;;;;5036283;28;20193;-66
2021/08/21 00:26:06;;;;;;;0.30;0.20;;;15.10;99.90;;;;;;5036129;28;20197;-66
2021/08/21 00:28:31;;;;;;;0.30;0.10;;;15.00;99.90;;;;;;5035948;28;20178;-66
2021/08/21 00:30:57;;;;;;;0.30;0.20;;;14.90;99.90;;;;;;5036162;28;20208;-66
2021/08/21 00:33:22;;;;;;;0.30;0.20;;;14.90;99.90;;;;;;5035479;28;20199;-66
2021/08/21 00:35:48;;;;;;;0.30;0.20;;;15.00;99.90;;;;;;5036198;28;20212;-66
2021/08/21 00:38:13;;;;;;;0.30;0.20;;;14.90;99.90;;;;;;5035728;28;20186;-66
2021/08/21 00:40:39;;;;;;;0.30;0.20;;;14.90;99.90;;;;;;5036027;28;20181;-67
2021/08/21 00:43:05;;;;;;;0.30;0.20;;;14.90;99.90;;;;;;5035991;28;20224;-67
2021/08/21 00:45:30;;;;;;;1.13;1.13;;;14.90;99.90;;;;;;5035815;28;20182;-67
2021/08/21 00:47:56;;;;;;;0.30;0.20;;;14.80;99.90;;;;;;5035713;28;20174;-67
2021/08/21 00:50:22;;;;;;;1.73;1.60;;;14.80;99.90;;;;;;5035753;28;20243;-67
2021/08/21 00:52:47;;;;;;;0.30;0.10;;;14.80;99.90;;;;;;5035792;28;20741;-67
2021/08/21 00:55:13;;;;;;;0.30;0.20;;;14.80;99.90;;;;;;5035901;28;20209;-67
2021/08/21 00:57:38;;;;;;;0.30;0.20;;;14.70;99.90;;;;;;5035752;28;20293;-67
2021/08/21 01:00:05;;;;;;;0.30;0.20;;;14.70;99.90;;;;;;5035672;28;20264;-67
2021/08/21 01:02:31;;;;;;;0.30;0.20;;;14.70;99.90;;;;;;5035624;28;20195;-67
2021/08/21 01:04:58;;;;;;;0.30;0.20;;;14.80;99.90;;;;;;5035619;28;20201;-67
2021/08/21 01:07:27;;;;;;;0.30;0.20;;;14.90;99.90;;;;;;5035312;28;20208;-67
2021/08/21 01:09:53;;;;;;;0.30;0.15;;;14.80;99.90;;;;;;5035393;28;20662;-67
2021/08/21 01:12:21;;;;;;;0.30;0.20;;;14.80;99.90;;;;;;5035529;28;20186;-67
2021/08/21 01:14:48;;;;;;;0.30;0.20;;;14.80;99.90;;;;;;5035392;28;20622;-67
2021/08/21 01:17:14;;;;;;;0.30;0.20;;;14.70;99.90;;;;;;5035233;28;20185;-67
2021/08/21 01:19:44;;;;;;;0.30;0.20;;;14.70;99.90;;;;;;5035375;28;20204;-67
2021/08/21 01:22:37;;;;;;;0.30;0.20;;;14.70;99.90;;;;;;5035327;28;20207;-67
2021/08/21 01:25:20;;;;;;;0.30;0.20;;;14.70;99.90;;;;;;5034015;28;20193;-67
2021/08/21 01:27:46;;;;;;;0.30;0.10;;;14.80;99.90;;;;;;5034994;28;20285;-67
2021/08/21 01:30:12;;;;;;;0.30;0.10;;;14.80;99.90;;;;;;5035153;28;20197;-67
2021/08/21 01:32:37;;;;;;;0.30;0.10;;;14.70;99.90;;;;;;5035052;28;20173;-67
2021/08/21 01:35:04;;;;;;;0.30;0.20;;;14.70;99.90;;;;;;5035210;28;20177;-67
2021/08/21 01:37:30;;;;;;;0.30;0.15;;;14.70;99.90;;;;;;5034845;28;20212;-67
2021/08/21 01:39:56;;;;;;;0.30;0.20;;;14.70;99.90;;;;;;5035216;28;20598;-67
2021/08/21 01:42:23;;;;;;;0.30;0.20;;;14.60;99.90;;;;;;5034899;28;20178;-66
2021/08/21 01:44:49;;;;;;;0.30;0.20;;;14.70;99.90;;;;;;5034382;28;20181;-66
2021/08/21 01:47:16;;;;;;;0.30;0.10;;;14.60;99.90;;;;;;5034225;28;20708;-66
2021/08/21 01:49:42;;;;;;;0.30;0.20;;;14.50;99.90;;;;;;5034971;28;20215;-66
2021/08/21 01:52:08;;;;;;;0.30;0.10;;;14.40;99.90;;;;;;5034706;28;20592;-66
2021/08/21 01:54:34;;;;;;;0.30;0.20;;;14.40;99.90;;;;;;5034510;28;20379;-66
2021/08/21 01:57:02;;;;;;;0.30;0.20;;;14.50;99.90;;;;;;5034561;28;20196;-69
2021/08/21 01:59:35;;;;;;;0.30;0.17;;;14.50;99.90;;;;;;5034477;28;20185;-69
2021/08/21 02:02:03;;;;;;;0.30;0.20;;;14.50;99.90;;;;;;5033496;28;20315;-70
2021/08/21 02:04:28;;;;;;;0.30;0.20;;;14.60;99.90;;;;;;5033398;28;20192;-70
2021/08/21 02:06:54;;;;;;;0.30;0.20;;;14.60;99.90;;;;;;5033065;28;20217;-70
2021/08/21 02:09:22;;;;;;;0.30;0.10;;;14.60;99.90;;;;;;5034151;28;20181;-70
2021/08/21 02:11:49;;;;;;;0.30;0.20;;;14.50;99.90;;;;;;5034241;28;20182;-70
2021/08/21 02:14:15;;;;;;;0.30;0.20;;;14.40;99.90;;;;;;5034223;28;20220;-70
2021/08/21 02:16:42;;;;;;;0.30;0.20;;;14.40;99.90;;;;;;5034098;28;20185;-70
2021/08/21 02:19:08;;;;;;;0.30;0.20;;;14.40;99.90;;;;;;5032882;28;20196;-70
2021/08/21 02:21:33;;;;;;;0.30;0.20;;;14.30;99.90;;;;;;5034160;28;20565;-71
2021/08/21 02:23:59;;;;;;;0.30;0.20;;;14.30;99.90;;;;;;5033130;28;20272;-70
2021/08/21 02:26:26;;;;;;;0.30;0.20;;;14.30;99.90;;;;;;5033060;28;20217;-70
2021/08/21 02:28:53;;;;;;;0.30;0.10;;;14.30;99.90;;;;;;5033789;28;20178;-70
2021/08/21 02:31:19;;;;;;;0.30;0.17;;;14.20;99.90;;;;;;5033959;28;20527;-70
2021/08/21 02:33:45;;;;;;;0.30;0.10;;;14.30;99.90;;;;;;5033246;28;20184;-70
2021/08/21 02:36:10;;;;;;;0.30;0.20;;;14.30;99.90;;;;;;5034126;28;20183;-70
2021/08/21 02:38:36;;;;;;;0.30;0.20;;;14.10;99.90;;;;;;5033681;28;20243;-70
2021/08/21 02:41:01;;;;;;;0.30;0.20;;;14.00;99.90;;;;;;5033849;28;20643;-70
2021/08/21 02:43:27;;;;;;;0.57;0.57;;;14.00;99.90;;;;;;5032750;28;20192;-71
2021/08/21 02:45:53;;;;;;;0.30;0.20;;;14.00;99.90;;;;;;5033695;28;20288;-70
2021/08/21 02:48:19;;;;;;;0.30;0.10;;;14.00;99.90;;;;;;5033462;28;20185;-70
2021/08/21 02:50:44;;;;;;;0.30;0.20;;;14.00;99.90;;;;;;5032625;28;20194;-70
2021/08/21 02:53:10;;;;;;;0.30;0.20;;;13.90;99.90;;;;;;5033674;28;20499;-70
2021/08/21 02:55:35;;;;;;;0.30;0.20;;;14.00;99.90;;;;;;5033726;28;20170;-70
2021/08/21 02:58:01;;;;;;;0.30;0.17;;;13.90;99.90;;;;;;5033176;28;20339;-70
2021/08/21 03:00:26;;;;;;;0.30;0.17;;;13.90;99.90;;;;;;5033494;28;20280;-70
2021/08/21 03:02:52;;;;;;;0.30;0.20;;;13.80;99.90;;;;;;5033692;28;20247;-70
2021/08/21 03:05:17;;;;;;;0.30;0.10;;;13.70;99.90;;;;;;5033453;28;20185;-70
2021/08/21 03:07:43;;;;;;;0.30;0.20;;;13.70;99.90;;;;;;5033306;28;20210;-70
2021/08/21 03:10:09;;;;;;;0.30;0.20;;;13.70;99.90;;;;;;5033358;28;20177;-70
2021/08/21 03:12:35;;;;;;;0.30;0.20;;;13.70;99.90;;;;;;5033518;28;20257;-70
2021/08/21 03:15:01;;;;;;;0.30;0.20;;;13.70;99.90;;;;;;5032434;28;20182;-70
2021/08/21 03:17:26;;;;;;;0.30;0.20;;;13.70;99.90;;;;;;5032433;28;20189;-70
2021/08/21 03:19:52;;;;;;;0.30;0.20;;;13.80;99.90;;;;;;5033181;28;20185;-70
2021/08/21 03:22:18;;;;;;;0.30;0.20;;;13.80;99.90;;;;;;5033370;28;20185;-70
2021/08/21 03:24:44;;;;;;;0.30;0.20;;;13.80;99.90;;;;;;5032445;28;20192;-70
2021/08/21 03:27:09;;;;;;;0.30;0.20;;;13.80;99.90;;;;;;5032189;28;20468;-70
2021/08/21 03:29:35;;;;;;;0.30;0.20;;;13.90;99.90;;;;;;5033262;28;20186;-70
2021/08/21 03:32:00;;;;;;;0.30;0.20;;;14.00;99.90;;;;;;5033280;28;20635;-70
2021/08/21 03:34:26;;;;;;;0.30;0.20;;;14.00;99.90;;;;;;5032187;28;20518;-70
2021/08/21 03:36:52;;;;;;;0.30;0.20;;;14.10;99.90;;;;;;5033274;28;20209;-71
2021/08/21 03:39:18;;;;;;;0.30;0.10;;;14.10;99.90;;;;;;5032180;28;20622;-70
2021/08/21 03:41:44;;;;;;;0.30;0.10;;;14.20;99.90;;;;;;5032277;28;20192;-71
2021/08/21 03:44:09;;;;;;;0.30;0.20;;;14.40;99.90;;;;;;5033294;28;20420;-67
2021/08/21 03:46:35;;;;;;;0.30;0.20;;;14.40;99.90;;;;;;5033388;28;20201;-66
2021/08/21 03:49:00;;;;;;;0.30;0.20;;;14.50;99.90;;;;;;5033201;28;20327;-66
2021/08/21 03:51:26;;;;;;;0.30;0.20;;;14.60;99.90;;;;;;5033088;28;20182;-66
2021/08/21 03:54:16;;;;;;;0.80;0.80;;;14.50;99.90;;;;;;5033347;28;20231;-66
2021/08/21 03:57:00;;;;;;;0.30;0.20;;;14.40;99.90;;;;;;5032175;28;20232;-66
2021/08/21 03:59:26;;;;;;;1.38;1.30;;;14.40;99.90;;;;;;5031835;28;20613;-66
2021/08/21 04:01:51;;;;;;;0.30;0.20;;;14.50;99.90;;;;;;5031928;28;20235;-66
2021/08/21 04:04:17;;;;;;;0.30;0.20;;;14.60;99.90;;;;;;5031853;28;20181;-66
2021/08/21 04:06:43;;;;;;;0.30;0.20;;;14.70;99.90;;;;;;5032695;28;20213;-66
2021/08/21 04:09:08;;;;;;;0.30;0.20;;;14.70;99.90;;;;;;5034297;28;20510;-66
2021/08/21 04:11:34;;;;;;;0.30;0.20;;;14.80;99.90;;;;;;5036731;28;20186;-69
2021/08/21 04:14:00;;;;;;;0.30;0.20;;;14.90;99.90;;;;;;5036731;28;20181;-69
2021/08/21 04:16:26;;;;;;;0.30;0.20;;;14.90;99.90;;;;;;5035869;28;20186;-70
2021/08/21 04:18:52;;;;;;;0.30;0.20;;;14.90;99.90;;;;;;5037386;28;20433;-69
2021/08/21 04:21:17;;;;;;;0.30;0.20;;;15.00;99.90;;;;;;5037931;28;20460;-69
2021/08/21 04:23:43;;;;;;;0.30;0.20;;;15.00;99.90;;;;;;5036975;28;20433;-67
2021/08/21 04:26:08;;;;;;;0.30;0.20;;;15.10;99.90;;;;;;5037517;28;20244;-68
2021/08/21 04:28:34;;;;;;;0.30;0.10;;;15.10;99.90;;;;;;5037396;28;20638;-68
2021/08/21 04:31:00;;;;;;;0.30;0.20;;;15.10;99.90;;;;;;5036903;28;20173;-68
2021/08/21 04:33:26;;;;;;;0.30;0.10;;;15.10;99.90;;;;;;5039430;28;20644;-66
2021/08/21 04:35:52;;;;;;;0.30;0.20;;;15.20;99.90;;;;;;5040746;28;20193;-65
2021/08/21 04:38:18;;;;;;;0.30;0.20;;;15.30;99.90;;;;;;5042177;28;20209;-65
2021/08/21 04:40:46;;;;;;;0.30;0.20;;;15.30;99.90;;;;;;5042531;28;20424;-66
2021/08/21 04:43:16;;;;;;;0.30;0.10;;;15.30;99.90;;;;;;5042343;28;20174;-66
2021/08/21 04:45:42;;;;;;;0.30;0.17;;;15.40;99.90;;;;;;5042026;28;20201;-66
2021/08/21 04:48:08;;;;;;;0.30;0.20;;;15.40;99.90;;;;;;5040753;28;20177;-65
2021/08/21 04:50:35;;;;;;;0.30;0.20;;;15.50;99.90;;;;;;5039445;28;20654;-66
2021/08/21 04:53:02;;;;;;;0.30;0.20;;;15.60;99.90;;;;;;5036263;28;20215;-66
2021/08/21 04:55:28;;;;;;;0.30;0.20;;;15.80;99.90;;;;;;5035976;28;20599;-65
2021/08/21 04:57:53;;;;;;;0.30;0.20;;;16.10;99.90;;;;;;5035657;28;20196;-65
2021/08/21 05:00:19;;;;;;;0.30;0.20;;;16.30;99.90;;;;;;5035506;28;20201;-65
2021/08/21 05:02:45;;;;;;;0.40;0.20;;;16.70;99.90;;;;;;5035319;28;20190;-65
2021/08/21 05:05:10;;;;;;;1.00;0.90;;;17.40;99.90;;;;;;5035708;28;20627;-65
2021/08/21 05:07:36;;;;;;;0.40;0.20;;;19.00;99.90;;;;;;5035465;28;20225;-65
2021/08/21 05:10:01;;;;;;;0.40;0.20;;;19.90;1.00;;;;;;5035559;28;20531;-65
2021/08/21 05:12:27;;;;;;;0.40;0.20;;;20.60;1.00;;;;;;5035752;28;20626;-65
2021/08/21 05:14:52;;;;;;;0.40;0.20;;;21.10;1.00;;;;;;5035520;28;20173;-65
2021/08/21 05:17:18;;;;;;;0.40;0.20;;;20.90;1.00;;;;;;5035634;28;20243;-65
2021/08/21 05:19:52;;;;;;;0.40;0.20;;;20.30;99.90;;;;;;5035273;28;20244;-65
2021/08/21 05:22:24;;;;;;;0.40;0.20;;;19.60;99.90;;;;;;5035560;28;20185;-67
2021/08/21 05:24:50;;;;;;;0.40;0.20;;;19.10;53.50;;;;;;5035356;28;20424;-70
2021/08/21 05:27:17;;;;;;;0.40;0.30;;;19.30;99.90;;;;;;5035045;28;20468;-70
2021/08/21 05:29:43;;;;;;;0.40;0.20;;;21.00;99.90;;;;;;5033963;28;20424;-70
2021/08/21 05:32:09;;;;;;;0.40;0.20;;;22.80;99.90;;;;;;5034938;28;20420;-70
2021/08/21 05:34:34;;;;;;;0.40;0.17;;;24.10;1.00;;;;;;5035167;28;20432;-69
2021/08/21 05:37:00;;;;;;;0.40;0.20;;;24.50;99.90;;;;;;5034820;28;20258;-69
2021/08/21 05:39:26;;;;;;;0.40;0.20;;;24.70;99.90;;;;;;5034737;28;20185;-69
2021/08/21 05:41:51;;;;;;;0.40;0.20;;;25.40;99.90;;;;;;5034947;28;20188;-69
2021/08/21 05:44:17;;;;;;;3.30;3.10;;;25.60;53.10;;;;;;5034717;28;20479;-69
2021/08/21 05:46:43;;;;;;;0.40;0.20;;;25.60;13.70;;;;;;5034633;28;20216;-69
2021/08/21 05:49:09;;;;;;;0.40;0.20;;;25.10;88.00;;;;;;5034471;28;20181;-69
2021/08/21 05:51:34;;;;;;;0.40;0.20;;;25.90;7.20;;;;;;5034657;28;20778;-70
2021/08/21 05:54:00;;;;;;;0.40;0.20;;;26.60;1.00;;;;;;5034612;28;20677;-70
2021/08/21 05:56:25;;;;;;;1.23;0.50;;;27.20;1.00;;;;;;5034762;28;20533;-70
2021/08/21 05:58:51;;;;;;;0.40;0.20;;;27.50;1.00;;;;;;5034188;28;20622;-70
2021/08/21 06:01:17;;;;;;;1.60;1.57;;;26.70;1.00;;;;;;5034584;28;20432;-68
2021/08/21 06:03:42;;;;;;;0.40;0.20;;;23.90;99.90;;;;;;5034434;28;20642;-69
2021/08/21 06:06:12;;;;;;;0.40;0.17;;;22.40;1.00;;;;;;5034258;28;20205;-66
2021/08/21 06:08:38;;;;;;;0.40;0.20;;;20.90;1.00;;;;;;5034103;28;20192;-66
2021/08/21 06:11:04;;;;;;;0.40;0.20;;;20.20;99.90;;;;;;5033999;28;20486;-66
2021/08/21 06:13:30;;;;;;;0.40;0.20;;;19.90;10.90;;;;;;5034191;28;20416;-66
2021/08/21 06:15:56;;;;;;;0.40;0.20;;;19.60;99.90;;;;;;5034058;28;20173;-66
2021/08/21 06:18:21;;;;;;;0.50;0.30;;;19.20;99.90;;;;;;5033893;28;20207;-66
2021/08/21 06:20:47;;;;;;;0.40;0.10;;;18.80;1.00;;;;;;5034166;28;20316;-66
2021/08/21 06:23:12;;;;;;;0.40;0.20;;;18.60;99.90;;;;;;5033259;28;20610;-66
2021/08/21 06:25:38;;;;;;;0.60;0.37;;;18.20;99.90;;;;;;5034540;28;20231;-66
2021/08/21 06:28:04;;;;;;;0.40;0.20;;;17.80;1.00;;;;;;5034195;28;20205;-66
2021/08/21 06:30:29;;;;;;;0.67;0.67;;;17.90;1.00;;;;;;5034415;28;20487;-66
2021/08/21 06:32:55;;;;;;;0.40;0.20;;;18.10;1.00;;;;;;5034067;28;20184;-66
2021/08/21 06:35:20;;;;;;;1.50;1.40;;;17.80;1.00;;;;;;5034587;28;20489;-66
2021/08/21 06:37:46;;;;;;;0.40;0.20;;;18.10;1.00;;;;;;5034138;28;20182;-66
2021/08/21 06:40:12;;;;;;;0.40;0.20;;;18.30;1.00;;;;;;5032027;28;20270;-66
2021/08/21 06:42:37;;;;;;;0.60;0.50;;;18.60;1.00;;;;;;5021489;28;20635;-66
2021/08/21 06:45:04;;;;;;;0.40;0.20;;;18.60;1.00;;;;;;5024074;28;20428;-66
2021/08/21 06:47:30;;;;;;;0.40;0.20;;;18.50;1.00;;;;;;5024271;28;20209;-68
2021/08/21 06:49:56;;;;;;;0.40;0.20;;;18.70;99.90;;;;;;5022199;28;20425;-68
2021/08/21 06:52:22;;;;;;;1.90;0.93;;;18.80;99.90;;;;;;5022674;28;20173;-69
2021/08/21 06:54:47;;;;;;;0.40;0.20;;;18.60;99.90;;;;;;5023790;28;20194;-69
2021/08/21 06:57:13;;;;;;;0.40;0.20;;;18.40;1.00;;;;;;5022038;28;20428;-69
2021/08/21 06:59:38;;;;;;;0.50;0.40;;;18.60;1.00;;;;;;5023690;28;20773;-69
2021/08/21 07:02:04;;;;;;;1.63;0.87;;;18.50;99.90;;;;;;5023244;28;20236;-69
2021/08/21 07:04:30;;;;;;;0.40;0.10;;;18.00;99.90;;;;;;5022478;28;20182;-69
2021/08/21 07:06:55;;;;;;;0.40;0.20;;;17.80;1.00;;;;;;5024034;28;20468;-69
2021/08/21 07:09:21;;;;;;;3.13;0.50;;;18.00;1.00;;;;;;5022590;28;20609;-69
2021/08/21 07:11:47;;;;;;;1.13;0.80;;;18.00;1.00;;;;;;5022809;28;20239;-69
2021/08/21 07:14:13;;;;;;;0.40;0.20;;;18.30;1.00;;;;;;5024107;28;20181;-69
2021/08/21 07:16:38;;;;;;;2.23;2.13;;;18.00;1.00;;;;;;5022105;28;20798;-69
2021/08/21 07:19:05;;;;;;;0.40;0.20;;;18.10;1.00;;;;;;5021758;28;20189;-69
2021/08/21 07:21:32;;;;;;;1.07;0.70;;;18.20;1.00;;;;;;5021300;28;20178;-69
2021/08/21 07:23:57;;;;;;;0.40;0.10;;;18.20;1.00;;;;;;5020481;28;20440;-69
2021/08/21 07:26:23;;;;;;;0.40;0.20;;;18.80;99.90;;;;;;5023348;28;20464;-69
2021/08/21 07:28:49;;;;;;;0.40;0.20;;;19.00;99.90;;;;;;5020662;28;20293;-69
2021/08/21 07:31:14;;;;;;;0.90;0.70;;;19.10;99.90;;;;;;5023713;28;20177;-69
2021/08/21 07:33:40;;;;;;;0.53;0.33;;;19.10;28.10;;;;;;5022015;28;20208;-69
2021/08/21 07:36:05;;;;;;;0.40;0.20;;;19.00;58.80;;;;;;5022382;28;20193;-69
2021/08/21 07:38:31;;;;;;;0.90;0.40;;;19.40;16.70;;;;;;5024021;28;20224;-70
2021/08/21 07:40:56;;;;;;;0.40;0.20;;;19.10;1.00;;;;;;5022334;28;20186;-66
2021/08/21 07:43:22;;;;;;;0.97;0.80;;;18.70;99.90;;;;;;5021786;28;20192;-67
2021/08/21 07:45:48;;;;;;;0.67;0.50;;;19.00;99.90;;;;;;5027800;28;20182;-66
2021/08/21 07:48:15;;;;;;;1.37;0.70;;;19.10;99.90;;;;;;5036627;28;20284;-67
2021/08/21 07:50:40;;;;;;;0.40;0.20;;;18.90;7.10;;;;;;5032690;28;20177;-67
2021/08/21 07:53:06;;;;;;;1.40;1.33;;;18.90;99.90;;;;;;5036950;28;20939;-67
2021/08/21 07:55:31;;;;;;;0.50;0.50;;;18.90;99.90;;;;;;5030803;28;20197;-66
2021/08/21 07:57:57;;;;;;;0.40;0.20;;;18.80;99.90;;;;;;5023502;28;20190;-69
2021/08/21 08:00:22;;;;;;;0.50;0.30;;;19.40;99.90;;;;;;5036105;28;20193;-66
2021/08/21 08:02:48;;;;;;;0.40;0.20;;;19.50;1.00;;;;;;5036634;28;20177;-67
2021/08/21 08:05:14;;;;;;;0.50;0.30;;;19.60;1.00;;;;;;5036455;28;20203;-66
2021/08/21 08:07:40;;;;;;;1.43;1.33;;;19.70;1.00;;;;;;5036451;28;20289;-66
2021/08/21 08:10:06;;;;;;;0.40;0.20;;;20.20;99.90;;;;;;5035407;28;20184;-66
2021/08/21 08:12:32;;;;;;;0.70;0.70;;;20.30;1.00;;;;;;5036462;28;20808;-66
2021/08/21 08:14:57;;;;;;;0.50;0.30;;;20.10;99.90;;;;;;5036557;28;20425;-69
2021/08/21 08:17:24;;;;;;;0.40;0.20;;;19.80;99.90;;;;;;5036307;28;20260;-67
2021/08/21 08:19:50;;;;;;;0.60;0.30;;;19.80;1.00;;;;;;5036297;28;20276;-67
2021/08/21 08:22:16;;;;;;;0.40;0.20;;;20.00;1.00;;;;;;5036546;28;20908;-67
2021/08/21 08:24:42;;;;;;;0.40;0.20;;;20.30;99.90;;;;;;5035431;28;20443;-66
2021/08/21 08:27:08;;;;;;;0.40;0.20;;;20.50;99.90;;;;;;5036024;28;20288;-67
2021/08/21 08:29:33;;;;;;;0.40;0.20;;;20.40;1.00;;;;;;5035988;28;20169;-69
2021/08/21 08:31:59;;;;;;;0.40;0.13;;;20.70;99.90;;;;;;5036112;28;20297;-70
2021/08/21 08:34:24;;;;;;;0.40;0.20;;;20.90;97.10;;;;;;5036241;28;20648;-71
2021/08/21 08:36:50;;;;;;;0.40;0.20;;;21.10;1.00;;;;;;5035622;28;20204;-67
2021/08/21 08:39:18;;;;;;;0.50;0.27;;;21.50;1.00;;;;;;5035938;28;20323;-68
2021/08/21 08:41:43;;;;;;;0.93;0.53;;;21.10;99.90;;;;;;5028564;28;20247;-70
2021/08/21 08:44:12;;;;;;;0.50;0.20;;;21.00;1.00;;;;;;5026418;28;20429;-67
2021/08/21 08:46:38;;;;;;;0.40;0.20;;;21.10;99.90;;;;;;5035825;28;20201;-69
2021/08/21 08:49:05;;;;;;;0.80;0.53;;;20.90;1.00;;;;;;5035680;28;20577;-68
2021/08/21 08:51:34;;;;;;;0.40;0.20;;;20.40;1.00;;;;;;5035830;28;20478;-68
2021/08/21 08:54:00;;;;;;;0.50;0.30;;;20.50;1.00;;;;;;5034453;28;20510;-68
2021/08/21 08:56:26;;;;;;;0.40;0.20;;;20.50;1.00;;;;;;5034252;28;20516;-68
2021/08/21 08:58:51;;;;;;;0.40;0.20;;;20.60;99.90;;;;;;5034242;28;20462;-67
2021/08/21 09:01:17;;;;;;;4.30;0.33;;;20.80;99.90;;;;;;5034266;28;20174;-68
2021/08/21 09:03:43;;;;;;;0.50;0.20;;;21.00;1.00;;;;;;5033868;28;20182;-66
2021/08/21 09:06:13;;;;;;;0.40;0.20;;;20.80;1.00;;;;;;5033891;28;20212;-64
2021/08/21 09:08:39;;;;;;;0.50;0.40;;;20.70;99.90;;;;;;5033580;28;20669;-64
2021/08/21 09:11:25;;;;;;;0.40;0.30;;;20.70;99.90;;;;;;5033857;28;20546;-64
2021/08/21 09:14:11;;;;;;;1.80;0.83;;;20.50;99.90;;;;;;5034149;28;20519;-67
2021/08/21 09:16:36;;;;;;;0.60;0.50;;;20.40;99.90;;;;;;5034949;28;20489;-68
2021/08/21 09:19:04;;;;;;;0.40;0.20;;;20.50;99.90;;;;;;5035223;28;20424;-67
2021/08/21 09:21:31;;;;;;;0.40;0.20;;;20.40;1.00;;;;;;5035250;28;20216;-67
2021/08/21 09:23:56;;;;;;;1.23;0.63;;;20.80;99.90;;;;;;5035146;28;20436;-64
2021/08/21 09:26:27;;;;;;;0.40;0.20;;;20.90;99.90;;;;;;5035010;28;20470;-66
2021/08/21 09:28:56;;;;;;;0.50;0.40;;;21.10;1.00;;;;;;5034802;28;20169;-67
2021/08/21 09:31:23;;;;;;;0.50;0.30;;;21.50;99.90;;;;;;5035170;28;20428;-68
2021/08/21 09:34:01;;;;;;;0.40;0.20;;;21.40;1.00;;;;;;5034035;28;20428;-64
2021/08/21 09:36:30;;;;;;;0.50;0.20;;;21.50;1.00;;;;;;5033801;28;20504;-66
2021/08/21 09:38:56;;;;;;;1.03;0.30;;;21.60;99.90;;;;;;5033561;28;20444;-67
2021/08/21 09:41:22;;;;;;;0.40;0.20;;;21.80;99.90;;;;;;5033943;28;20431;-66
2021/08/21 09:43:48;;;;;;;0.40;0.20;;;22.10;1.00;;;;;;5033479;28;20802;-67
2021/08/21 09:46:19;;;;;;;0.60;0.33;;;22.20;99.90;;;;;;5034509;28;20472;-68
2021/08/21 09:48:58;;;;;;;1.13;0.50;;;22.20;1.00;;;;;;5034256;28;20181;-64
2021/08/21 09:51:36;;;;;;;0.40;0.10;;;21.80;99.90;;;;;;5034683;28;20932;-68
2021/08/21 09:54:04;;;;;;;0.60;0.50;;;21.60;1.00;;;;;;5034279;28;20439;-66
2021/08/21 09:56:41;;;;;;;0.80;0.63;;;21.60;1.00;;;;;;5034457;28;20901;-65
2021/08/21 09:59:07;;;;;;;0.50;0.20;;;21.30;1.00;;;;;;5032735;28;20455;-67
2021/08/21 10:01:36;;;;;;;0.40;0.20;;;21.10;1.00;;;;;;5034231;28;20447;-67
2021/08/21 10:04:03;;;;;;;0.40;0.20;;;21.20;1.00;;;;;;5034595;28;20436;-66
2021/08/21 10:06:29;;;;;;;0.60;0.40;;;21.90;29.50;;;;;;5033228;28;20467;-65
2021/08/21 10:09:09;;;;;;;0.40;0.10;;;21.50;1.00;;;;;;5033934;28;20912;-69
2021/08/21 10:11:42;;;;;;;0.40;0.20;;;21.50;1.00;;;;;;5033332;28;20658;-69
2021/08/21 10:14:09;;;;;;;0.40;0.20;;;21.70;99.90;;;;;;5033197;28;20432;-69
2021/08/21 10:16:36;;;;;;;0.40;0.20;;;21.70;99.90;;;;;;5034287;28;20432;-69
2021/08/21 10:19:02;;;;;;;0.40;0.13;;;21.60;1.00;;;;;;5033989;28;20446;-68
2021/08/21 10:21:28;;;;;;;0.40;0.10;;;21.60;99.90;;;;;;5034426;28;20483;-65
2021/08/21 10:23:55;;;;;;;0.87;0.50;;;21.60;99.90;;;;;;5034014;28;20439;-65
2021/08/21 10:26:29;;;;;;;0.40;0.20;;;21.90;99.90;;;;;;5033091;28;20513;-65
2021/08/21 10:28:58;;;;;;;0.40;0.13;;;21.90;99.90;;;;;;5033797;28;20470;-68
2021/08/21 10:31:37;;;;;;;0.40;0.20;;;21.90;1.00;;;;;;5034181;28;20520;-68
2021/08/21 10:34:04;;;;;;;0.40;0.20;;;21.60;42.60;;;;;;5033964;28;20634;-68
2021/08/21 10:36:42;;;;;;;0.50;0.40;;;21.30;99.90;;;;;;5033938;28;20439;-68
2021/08/21 10:39:26;;;;;;;0.70;0.47;;;21.10;99.90;;;;;;5033679;28;20927;-69
2021/08/21 10:41:55;;;;;;;0.40;0.20;;;21.30;99.90;;;;;;5033619;28;20764;-65
2021/08/21 10:44:41;;;;;;;0.60;0.20;;;21.10;99.90;;;;;;5033718;28;20432;-65
2021/08/21 10:47:08;;;;;;;0.40;0.20;;;21.30;1.00;;;;;;5033593;28;20479;-65
2021/08/21 10:49:42;;;;;;;0.60;0.30;;;21.60;99.90;;;;;;5033443;28;20428;-66
2021/08/21 10:52:47;;;;;;;0.70;0.40;;;21.50;99.90;;;;;;5033494;28;20485;-68
2021/08/21 10:55:18;;;;;;;0.50;0.30;;;21.50;1.00;;;;;;5033746;28;20733;-69
2021/08/21 10:58:17;;;;;;;0.40;0.20;;;21.40;1.00;;;;;;5033483;28;20435;-65
2021/08/21 11:00:46;;;;;;;0.50;0.20;;;21.40;99.90;;;;;;5032046;28;20452;-65
2021/08/21 11:03:12;;;;;;;0.50;0.30;;;21.30;99.90;;;;;;5033354;28;20446;-65
2021/08/21 11:05:58;;;;;;;0.60;0.30;;;20.90;1.00;;;;;;5033462;28;20443;-65
2021/08/21 11:08:27;;;;;;;0.40;0.20;;;20.90;99.90;;;;;;5033302;28;20435;-65
2021/08/21 11:11:25;;;;;;;0.40;0.20;;;21.30;1.00;;;;;;5033484;28;20752;-65
2021/08/21 11:14:05;;;;;;;0.50;0.30;;;21.90;1.00;;;;;;5033453;28;20471;-65
2021/08/21 11:16:58;;;;;;;0.60;0.57;;;21.80;1.00;;;;;;5033285;28;20427;-65
2021/08/21 11:19:45;;;;;;;0.40;0.20;;;22.20;1.00;;;;;;5035370;28;20439;-65
2021/08/21 11:22:36;;;;;;;0.40;0.13;;;22.20;1.00;;;;;;5036484;28;20485;-65
2021/08/21 11:25:06;;;;;;;0.40;0.20;;;22.40;99.90;;;;;;5029854;28;20805;-65
2021/08/21 11:27:35;;;;;;;0.87;0.30;;;22.30;99.90;;;;;;5037485;28;20478;-65
2021/08/21 11:30:07;;;;;;;0.40;0.20;;;22.20;1.00;;;;;;5037074;28;20778;-65
2021/08/21 11:32:54;;;;;;;0.40;0.20;;;22.10;1.00;;;;;;5037225;28;20412;-65
2021/08/21 11:35:38;;;;;;;0.50;0.30;;;22.20;1.00;;;;;;5037267;28;20438;-65
2021/08/21 11:38:15;;;;;;;0.50;0.30;;;21.90;1.00;;;;;;5036377;28;20462;-65
2021/08/21 11:40:49;;;;;;;0.40;0.10;;;22.00;1.60;;;;;;5032880;28;20935;-65
2021/08/21 11:43:29;;;;;;;0.40;0.20;;;22.30;1.00;;;;;;5035774;28;20435;-65
2021/08/21 11:45:57;;;;;;;0.40;0.20;;;22.50;1.00;;;;;;5036659;28;20934;-65
2021/08/21 11:48:31;;;;;;;0.40;0.20;;;22.70;1.00;;;;;;5036707;28;20435;-65
2021/08/21 11:50:59;;;;;;;0.40;0.20;;;23.40;1.00;;;;;;5036823;28;20493;-66
2021/08/21 11:53:28;;;;;;;0.90;0.90;;;23.10;99.90;;;;;;5036563;28;20489;-66
2021/08/21 11:55:58;;;;;;;0.40;0.10;;;23.00;99.90;;;;;;5036631;28;20446;-65
2021/08/21 11:58:32;;;;;;;0.50;0.20;;;22.70;1.00;;;;;;5036368;28;20419;-65
2021/08/21 12:01:11;;;;;;;0.40;0.20;;;22.60;99.90;;;;;;5036904;28;20434;-65
2021/08/21 12:06:30;;;;;;;0.50;0.20;;;23.00;99.90;;;;;;5036924;28;20420;-65
2021/08/21 12:09:09;;;;;;;0.60;0.23;;;22.80;99.90;;;;;;5036062;28;20442;-65
2021/08/21 12:11:35;;;;;;;0.50;0.20;;;22.80;99.90;;;;;;5036662;28;20428;-66
2021/08/21 12:14:01;;;;;;;0.40;0.10;;;22.70;99.90;;;;;;5036306;28;20551;-69
2021/08/21 12:16:31;;;;;;;0.50;0.30;;;23.00;99.90;;;;;;5028166;28;20433;-69
2021/08/21 12:18:58;;;;;;;0.40;0.10;;;23.30;57.70;;;;;;5021292;28;20433;-69
2021/08/21 12:21:24;;;;;;;0.50;0.20;;;23.00;99.90;;;;;;5021217;28;20454;-65
2021/08/21 12:23:52;;;;;;;0.90;0.60;;;23.00;90.00;;;;;;5016042;28;20437;-65
2021/08/21 12:26:46;;;;;;;0.40;0.20;;;23.10;99.90;;;;;;5016867;28;20547;-65
2021/08/21 12:29:28;;;;;;;0.40;0.20;;;22.90;13.30;;;;;;5016268;28;20445;-66
2021/08/21 12:31:54;;;;;;;0.43;0.20;;;23.10;99.90;;;;;;5025917;28;20825;-66
2021/08/21 12:34:24;;;;;;;0.50;0.30;;;23.60;99.90;;;;;;5032843;28;20460;-66
2021/08/21 12:36:50;;;;;;;0.40;0.20;;;23.30;99.90;;;;;;5028109;28;20534;-66
2021/08/21 12:39:21;;;;;;;0.50;0.20;;;23.20;99.90;;;;;;5034032;28;20523;-65
2021/08/21 12:41:54;;;;;;;0.50;0.27;;;23.00;99.90;;;;;;5034964;28;20741;-65
2021/08/21 12:44:38;;;;;;;0.40;0.17;;;23.00;99.90;;;;;;5026679;28;20436;-66
2021/08/21 12:47:06;;;;;;;0.40;0.20;;;23.10;99.90;;;;;;5036403;28;20933;-64
2021/08/21 12:49:37;;;;;;;0.80;0.30;;;23.20;99.90;;;;;;5034220;28;20422;-64
2021/08/21 12:52:08;;;;;;;0.40;0.20;;;22.90;99.90;;;;;;5035985;28;20426;-66
2021/08/21 12:54:37;;;;;;;0.53;0.40;;;23.10;99.90;;;;;;5035746;28;20428;-65
2021/08/21 12:57:09;;;;;;;0.40;0.20;;;23.30;55.30;;;;;;5036005;28;20749;-65
2021/08/21 12:59:36;;;;;;;0.53;0.30;;;23.60;1.00;;;;;;5034539;28;20463;-65